createdAt,value
2023-03-24T00:00:21.353Z,9.60
2023-03-24T00:02:51.688Z,9.03
2023-03-24T00:05:22.273Z,9.73
2023-03-24T00:07:55.015Z,8.73
2023-03-24T00:10:24.447Z,9.00
2023-03-24T00:12:53.476Z,9.30
2023-03-24T00:15:24.217Z,9.75
2023-03-24T00:17:55.836Z,9.65
2023-03-24T00:20:26.493Z,9.43
2023-03-24T00:22:58.347Z,10.20
2023-03-24T00:25:32.841Z,9.53
2023-03-24T00:28:05.651Z,9.88
2023-03-24T00:30:35.673Z,9.68
2023-03-24T00:33:05.263Z,9.73
2023-03-24T00:35:35.248Z,10.03
2023-03-24T00:38:04.861Z,10.40
2023-03-24T00:40:33.956Z,9.28
2023-03-24T00:43:04.541Z,10.05
2023-03-24T00:45:34.131Z,10.43
2023-03-24T00:48:05.988Z,10.38
2023-03-24T00:50:35.011Z,10.08
2023-03-24T00:53:06.048Z,10.18
2023-03-24T00:55:37.732Z,9.78
2023-03-24T00:58:06.764Z,9.13
2023-03-24T01:00:38.890Z,9.35
2023-03-24T01:03:09.589Z,9.05
2023-03-24T01:05:41.935Z,8.63
2023-03-24T01:08:11.600Z,8.93
2023-03-24T01:10:46.897Z,9.60
2023-03-24T01:13:18.050Z,9.70
2023-03-24T01:15:47.453Z,9.23
2023-03-24T01:18:17.198Z,9.55
2023-03-24T01:20:47.054Z,10.05
2023-03-24T01:23:23.715Z,9.33
2023-03-24T01:25:53.700Z,9.35
2023-03-24T01:28:28.382Z,9.30
2023-03-24T01:30:57.395Z,9.48
2023-03-24T01:33:26.727Z,9.98
2023-03-24T01:35:56.225Z,9.48
2023-03-24T01:38:25.529Z,10.38
2023-03-24T01:40:55.400Z,9.90
2023-03-24T01:43:32.987Z,10.18
2023-03-24T01:46:07.715Z,9.50
2023-03-24T01:48:45.364Z,9.38
2023-03-24T01:51:33.597Z,8.95
2023-03-24T01:54:19.492Z,9.80
2023-03-24T01:56:54.135Z,9.33
2023-03-24T01:59:27.264Z,9.65
2023-03-24T02:01:59.548Z,9.53
2023-03-24T02:04:38.462Z,10.63
2023-03-24T02:07:22.168Z,10.15
2023-03-24T02:09:52.726Z,9.03
2023-03-24T02:12:22.010Z,11.00
2023-03-24T02:14:52.860Z,10.78
2023-03-24T02:17:29.799Z,10.38
2023-03-24T02:20:45.670Z,11.00
2023-03-24T02:23:44.391Z,11.03
2023-03-24T02:26:41.572Z,10.82
2023-03-24T02:30:06.534Z,11.05
2023-03-24T02:33:09.224Z,11.25
2023-03-24T02:36:24.465Z,11.20
2023-03-24T02:39:40.204Z,11.18
2023-03-24T02:42:18.096Z,10.03
2023-03-24T02:45:11.511Z,10.60
2023-03-24T02:48:13.311Z,10.58
2023-03-24T02:51:06.832Z,9.95
2023-03-24T02:54:01.270Z,10.88
2023-03-24T02:56:44.855Z,9.98
2023-03-24T02:59:23.970Z,9.78
2023-03-24T03:02:23.184Z,10.30
2023-03-24T03:05:03.067Z,10.50
2023-03-24T03:07:33.322Z,10.32
2023-03-24T03:10:24.865Z,10.58
2023-03-24T03:12:57.439Z,10.78
2023-03-24T03:15:31.939Z,10.13
2023-03-24T03:18:06.984Z,10.93
2023-03-24T03:20:42.383Z,10.18
2023-03-24T03:23:13.926Z,10.80
2023-03-24T03:25:48.425Z,10.05
2023-03-24T03:28:22.889Z,10.05
2023-03-24T03:30:58.833Z,10.28
2023-03-24T03:33:38.429Z,10.53
2023-03-24T03:36:27.894Z,10.23
2023-03-24T03:39:30.777Z,10.25
2023-03-24T03:42:01.575Z,10.08
2023-03-24T03:44:32.007Z,9.98
2023-03-24T03:47:01.227Z,11.70
2023-03-24T03:49:32.311Z,10.38
2023-03-24T03:52:03.291Z,10.45
2023-03-24T03:54:34.264Z,10.18
2023-03-24T03:57:03.354Z,10.40
2023-03-24T03:59:50.665Z,10.70
2023-03-24T04:02:49.062Z,10.95
2023-03-24T04:05:45.592Z,10.65
2023-03-24T04:08:44.469Z,9.95
2023-03-24T04:11:30.542Z,10.08
2023-03-24T04:14:41.925Z,11.08
2023-03-24T04:17:30.051Z,10.58
2023-03-24T04:20:12.065Z,10.23
2023-03-24T04:23:08.800Z,10.40
2023-03-24T04:25:58.080Z,10.20
2023-03-24T04:28:41.978Z,12.10
2023-03-24T04:31:24.077Z,11.85
2023-03-24T04:34:05.430Z,11.55
2023-03-24T04:36:43.143Z,11.73
2023-03-24T04:39:33.961Z,11.50
2023-03-24T04:42:08.342Z,11.05
2023-03-24T04:44:37.915Z,10.65
2023-03-24T04:47:25.848Z,10.32
2023-03-24T04:50:09.809Z,10.08
2023-03-24T04:52:41.336Z,9.80
2023-03-24T04:55:24.771Z,10.35
2023-03-24T04:57:53.783Z,10.35
2023-03-24T05:00:24.148Z,10.38
2023-03-24T05:02:53.253Z,10.38
2023-03-24T05:05:24.203Z,9.78
2023-03-24T05:07:56.673Z,10.20
2023-03-24T05:10:25.790Z,11.03
2023-03-24T05:12:58.220Z,10.55
2023-03-24T05:15:43.771Z,10.95
2023-03-24T05:18:17.470Z,10.25
2023-03-24T05:20:46.371Z,9.95
2023-03-24T05:23:17.757Z,10.28
2023-03-24T05:25:49.496Z,9.93
2023-03-24T05:28:18.476Z,10.32
2023-03-24T05:30:47.435Z,12.13
2023-03-24T05:33:22.540Z,11.30
2023-03-24T05:35:52.422Z,10.72
2023-03-24T05:38:21.304Z,10.68
2023-03-24T05:40:51.838Z,11.73
2023-03-24T05:43:20.848Z,11.25
2023-03-24T05:45:51.651Z,12.45
2023-03-24T05:48:24.467Z,10.78
2023-03-24T05:50:56.572Z,11.57
2023-03-24T05:53:26.235Z,10.95
2023-03-24T05:56:03.168Z,10.55
2023-03-24T05:58:35.596Z,11.93
2023-03-24T06:01:09.989Z,11.25
2023-03-24T06:03:40.145Z,11.12
2023-03-24T06:06:14.608Z,11.50
2023-03-24T06:08:45.222Z,10.98
2023-03-24T06:11:18.047Z,12.78
2023-03-24T06:13:52.200Z,11.28
2023-03-24T06:16:23.631Z,12.30
2023-03-24T06:18:54.702Z,12.30
2023-03-24T06:21:27.358Z,12.75
2023-03-24T06:23:58.210Z,12.33
2023-03-24T06:26:30.818Z,11.25
2023-03-24T06:29:01.740Z,11.05
2023-03-24T06:31:34.334Z,11.50
2023-03-24T06:34:07.191Z,11.30
2023-03-24T06:36:36.310Z,10.82
2023-03-24T06:39:05.924Z,10.68
2023-03-24T06:41:35.432Z,11.73
2023-03-24T06:44:06.044Z,11.38
2023-03-24T06:46:37.549Z,11.75
2023-03-24T06:49:06.272Z,12.07
2023-03-24T06:51:35.257Z,11.43
2023-03-24T06:54:04.615Z,11.93
2023-03-24T06:56:34.940Z,12.25
2023-03-24T06:59:03.954Z,11.40
2023-03-24T07:01:35.892Z,11.60
2023-03-24T07:04:11.404Z,12.43
2023-03-24T07:07:05.104Z,10.85
2023-03-24T07:09:21.147Z,11.15
2023-03-24T07:11:50.378Z,11.80
2023-03-24T07:14:21.253Z,10.25
2023-03-24T07:16:53.391Z,11.00
2023-03-24T07:19:24.090Z,11.68
2023-03-24T07:21:55.301Z,10.75
2023-03-24T07:24:26.804Z,10.98
2023-03-24T07:26:57.943Z,11.15
2023-03-24T07:29:27.560Z,10.38
2023-03-24T07:32:00.617Z,11.05
2023-03-24T07:34:30.541Z,10.65
2023-03-24T07:37:06.417Z,10.70
2023-03-24T07:42:06.243Z,10.50
2023-03-24T07:44:37.087Z,10.23
2023-03-24T07:47:09.002Z,10.72
2023-03-24T07:49:38.061Z,10.53
2023-03-24T07:52:09.672Z,10.00
2023-03-24T07:54:47.263Z,11.48
2023-03-24T07:57:18.044Z,11.70
2023-03-24T07:59:47.156Z,11.48
2023-03-24T08:02:21.801Z,11.93
2023-03-24T08:04:56.335Z,12.30
2023-03-24T08:07:30.115Z,10.10
2023-03-24T08:10:00.065Z,11.50
2023-03-24T08:12:29.370Z,10.78
2023-03-24T08:14:58.141Z,11.30
2023-03-24T08:17:28.281Z,11.45
2023-03-24T08:20:00.970Z,11.70
2023-03-24T08:22:28.761Z,11.68
2023-03-24T08:24:57.390Z,12.18
2023-03-24T08:27:28.552Z,12.05
2023-03-24T08:30:02.005Z,11.57
2023-03-24T08:32:32.324Z,12.07
2023-03-24T08:35:02.766Z,12.58
2023-03-24T08:37:32.505Z,12.58
2023-03-24T08:40:05.329Z,11.75
2023-03-24T08:42:33.989Z,12.20
2023-03-24T08:45:05.118Z,11.35
2023-03-24T08:47:34.225Z,12.18
2023-03-24T08:50:06.622Z,12.28
2023-03-24T08:52:36.827Z,13.68
2023-03-24T08:55:07.499Z,12.30
2023-03-24T08:57:36.686Z,12.82
2023-03-24T09:00:08.795Z,12.10
2023-03-24T09:02:39.152Z,12.58
2023-03-24T09:05:09.048Z,11.88
2023-03-24T09:07:38.922Z,12.35
2023-03-24T09:10:09.736Z,12.40
2023-03-24T09:12:40.156Z,12.45
2023-03-24T09:15:13.177Z,12.53
2023-03-24T09:17:41.758Z,11.95
2023-03-24T09:20:13.944Z,11.65
2023-03-24T09:22:45.437Z,11.95
2023-03-24T09:25:18.639Z,11.38
2023-03-24T09:27:47.555Z,10.75
2023-03-24T09:30:17.921Z,11.00
2023-03-24T09:32:47.618Z,11.25
2023-03-24T09:35:17.004Z,12.37
2023-03-24T09:37:48.095Z,18.62
2023-03-24T09:40:24.769Z,13.90
2023-03-24T09:43:01.977Z,13.08
2023-03-24T09:45:32.991Z,12.18
2023-03-24T09:48:13.662Z,11.55
2023-03-24T09:50:53.356Z,10.28
2023-03-24T09:54:04.349Z,10.32
2023-03-24T09:56:35.597Z,12.50
2023-03-24T09:59:18.060Z,10.70
2023-03-24T10:01:49.668Z,10.72
2023-03-24T10:04:24.140Z,10.95
2023-03-24T10:07:20.786Z,9.85
2023-03-24T10:09:57.823Z,10.65
2023-03-24T10:12:45.778Z,10.90
2023-03-24T10:18:14.218Z,11.57
2023-03-24T10:21:22.662Z,10.00
2023-03-24T10:24:25.198Z,10.55
2023-03-24T10:27:18.830Z,11.73
2023-03-24T10:29:47.934Z,10.45
2023-03-24T10:32:26.972Z,10.38
2023-03-24T10:34:59.292Z,9.73
2023-03-24T10:37:29.386Z,9.38
2023-03-24T10:40:01.318Z,9.58
2023-03-24T10:42:34.007Z,10.72
2023-03-24T10:45:02.825Z,10.58
2023-03-24T10:47:33.056Z,10.18
2023-03-24T10:50:14.331Z,9.78
2023-03-24T10:52:41.100Z,11.65
2023-03-24T10:55:18.846Z,14.65
2023-03-24T10:57:51.496Z,14.75
2023-03-24T11:00:31.316Z,11.18
2023-03-24T11:03:10.396Z,13.93
2023-03-24T11:05:40.628Z,11.53
2023-03-24T11:08:28.204Z,12.47
2023-03-24T11:10:58.769Z,12.90
2023-03-24T11:13:33.196Z,10.53
2023-03-24T11:16:11.879Z,8.88
2023-03-24T11:19:00.684Z,9.00
2023-03-24T11:21:32.230Z,8.23
2023-03-24T11:24:03.770Z,8.03
2023-03-24T11:26:35.873Z,7.55
2023-03-24T11:29:15.802Z,7.75
2023-03-24T11:31:58.139Z,7.50
2023-03-24T11:34:36.655Z,7.55
2023-03-24T11:37:16.254Z,8.25
2023-03-24T11:39:45.921Z,7.55
2023-03-24T11:42:18.061Z,8.05
2023-03-24T11:44:51.121Z,9.75
2023-03-24T11:47:40.165Z,10.08
2023-03-24T11:50:20.039Z,7.58
2023-03-24T11:53:18.782Z,7.58
2023-03-24T11:56:07.739Z,7.78
2023-03-24T11:58:44.664Z,7.40
2023-03-24T12:01:24.884Z,6.75
2023-03-24T12:04:05.523Z,7.62
2023-03-24T12:07:03.026Z,7.25
2023-03-24T12:09:52.867Z,7.45
2023-03-24T12:12:57.924Z,7.12
2023-03-24T12:15:47.426Z,6.50
2023-03-24T12:18:30.860Z,6.85
2023-03-24T12:21:27.219Z,7.35
2023-03-24T12:24:08.570Z,6.25
2023-03-24T12:26:39.545Z,6.15
2023-03-24T12:29:32.557Z,6.17
2023-03-24T12:32:34.097Z,6.42
2023-03-24T12:35:37.017Z,6.55
2023-03-24T12:38:40.052Z,6.40
2023-03-24T12:41:38.718Z,5.53
2023-03-24T12:44:14.231Z,6.67
2023-03-24T12:47:01.906Z,6.45
2023-03-24T12:49:54.106Z,5.75
2023-03-24T12:52:45.907Z,4.97
2023-03-24T12:55:35.259Z,5.30
2023-03-24T12:58:28.959Z,5.60
2023-03-24T13:01:09.885Z,5.05
2023-03-24T13:03:57.211Z,4.92
2023-03-24T13:06:54.592Z,5.20
2023-03-24T13:09:56.604Z,5.22
2023-03-24T13:12:55.276Z,4.85
2023-03-24T13:15:46.313Z,5.08
2023-03-24T13:18:44.797Z,5.37
2023-03-24T13:21:20.942Z,6.03
2023-03-24T13:24:01.262Z,6.00
2023-03-24T13:27:06.007Z,5.08
2023-03-24T13:29:55.311Z,4.67
2023-03-24T13:32:43.901Z,5.40
2023-03-24T13:35:53.374Z,6.20
2023-03-24T13:38:43.154Z,6.05
2023-03-24T13:41:16.057Z,5.75
2023-03-24T13:43:52.317Z,5.78
2023-03-24T13:46:21.448Z,5.40
2023-03-24T13:48:55.934Z,4.60
2023-03-24T13:51:33.885Z,4.97
2023-03-24T13:54:22.952Z,5.58
2023-03-24T13:57:10.717Z,5.12
2023-03-24T13:59:42.072Z,5.17
2023-03-24T14:02:31.478Z,5.40
2023-03-24T14:05:08.076Z,5.22
2023-03-24T14:07:44.027Z,5.37
2023-03-24T14:10:21.311Z,4.30
2023-03-24T14:13:01.834Z,4.87
2023-03-24T14:15:57.485Z,5.37
2023-03-24T14:18:32.136Z,4.58
2023-03-24T14:21:04.242Z,4.30
2023-03-24T14:23:46.566Z,4.78
2023-03-24T14:26:28.088Z,4.78
2023-03-24T14:28:58.350Z,5.30
2023-03-24T14:31:34.498Z,5.30
2023-03-24T14:34:11.382Z,5.78
2023-03-24T14:36:44.774Z,5.92
2023-03-24T14:39:43.397Z,4.97
2023-03-24T14:42:37.070Z,5.95
2023-03-24T14:45:27.366Z,5.30
2023-03-24T14:48:01.279Z,5.40
2023-03-24T14:50:31.343Z,5.45
2023-03-24T14:53:02.250Z,6.28
2023-03-24T14:55:42.399Z,6.15
2023-03-24T14:58:38.475Z,6.35
2023-03-24T15:01:08.214Z,6.20
2023-03-24T15:03:54.756Z,6.28
2023-03-24T15:06:25.301Z,6.30
2023-03-24T15:08:59.669Z,6.53
2023-03-24T15:11:32.492Z,6.30
2023-03-24T15:14:04.138Z,5.97
2023-03-24T15:16:36.153Z,6.37
2023-03-24T15:19:22.080Z,5.97
2023-03-24T15:22:05.580Z,6.78
2023-03-24T15:24:37.210Z,6.90
2023-03-24T15:27:26.313Z,7.25
2023-03-24T15:29:59.491Z,7.15
2023-03-24T15:32:30.404Z,6.72
2023-03-24T15:35:04.659Z,7.00
2023-03-24T15:37:40.099Z,7.22
2023-03-24T15:40:30.558Z,6.40
2023-03-24T15:43:04.124Z,6.67
2023-03-24T15:45:35.827Z,6.35
2023-03-24T15:48:08.635Z,7.28
2023-03-24T15:50:39.819Z,6.30
2023-03-24T15:53:22.661Z,6.30
2023-03-24T15:56:08.898Z,6.58
2023-03-24T15:58:55.456Z,6.53
2023-03-24T16:01:29.745Z,6.83
2023-03-24T16:04:00.971Z,6.92
2023-03-24T16:06:36.237Z,7.30
2023-03-24T16:09:10.674Z,6.33
2023-03-24T16:11:41.361Z,7.10
2023-03-24T16:14:32.161Z,6.60
2023-03-24T16:17:04.750Z,6.80
2023-03-24T16:19:33.964Z,6.50
2023-03-24T16:22:12.177Z,6.83
2023-03-24T16:24:41.159Z,8.83
2023-03-24T16:27:12.033Z,7.37
2023-03-24T16:29:43.393Z,6.78
2023-03-24T16:32:12.110Z,6.87
2023-03-24T16:34:40.893Z,7.47
2023-03-24T16:37:11.430Z,7.50
2023-03-24T16:39:41.009Z,7.10
2023-03-24T16:42:09.635Z,7.55
2023-03-24T16:44:38.513Z,14.95
2023-03-24T16:47:10.270Z,9.58
2023-03-24T16:49:39.698Z,9.03
2023-03-24T16:52:12.844Z,8.78
2023-03-24T16:54:42.873Z,8.03
2023-03-24T16:57:12.318Z,9.45
2023-03-24T16:59:41.605Z,9.30
2023-03-24T17:02:11.369Z,9.48
2023-03-24T17:04:42.659Z,9.50
2023-03-24T17:07:11.233Z,9.85
2023-03-24T17:09:41.541Z,10.08
2023-03-24T17:12:12.083Z,11.12
2023-03-24T17:14:44.426Z,10.63
2023-03-24T17:17:14.227Z,10.53
2023-03-24T17:19:43.384Z,10.58
2023-03-24T17:22:16.197Z,11.12
2023-03-24T17:24:47.444Z,11.12
2023-03-24T17:27:18.715Z,11.05
2023-03-24T17:29:48.572Z,12.23
2023-03-24T17:32:19.369Z,12.05
2023-03-24T17:34:50.239Z,13.05
2023-03-24T17:37:20.198Z,14.10
2023-03-24T17:39:49.053Z,12.98
2023-03-24T17:42:17.728Z,13.53
2023-03-24T17:44:46.688Z,13.28
2023-03-24T17:47:17.249Z,13.90
2023-03-24T17:49:47.688Z,13.43
2023-03-24T17:52:16.455Z,14.23
2023-03-24T17:54:46.603Z,14.93
2023-03-24T17:57:15.473Z,14.28
2023-03-24T17:59:45.498Z,14.20
2023-03-24T18:02:14.407Z,13.95
2023-03-24T18:04:44.493Z,15.35
2023-03-24T18:07:14.693Z,15.80
2023-03-24T18:09:44.710Z,15.20
2023-03-24T18:12:13.778Z,14.93
2023-03-24T18:14:43.146Z,14.78
2023-03-24T18:17:14.571Z,14.28
2023-03-24T18:19:43.402Z,13.65
2023-03-24T18:22:13.704Z,14.60
2023-03-24T18:24:44.078Z,15.98
2023-03-24T18:27:13.126Z,17.67
2023-03-24T18:29:42.506Z,16.30
2023-03-24T18:32:11.564Z,17.35
2023-03-24T18:34:44.566Z,16.12
2023-03-24T18:37:15.128Z,14.47
2023-03-24T18:39:44.433Z,14.50
2023-03-24T18:42:13.296Z,15.00
2023-03-24T18:44:43.985Z,14.98
2023-03-24T18:47:13.258Z,12.98
2023-03-24T18:49:43.513Z,13.72
2023-03-24T18:52:15.400Z,11.90
2023-03-24T18:54:45.509Z,14.03
2023-03-24T18:57:14.597Z,14.45
2023-03-24T18:59:45.392Z,13.98
2023-03-24T19:02:15.698Z,13.80
2023-03-24T19:04:46.365Z,13.55
2023-03-24T19:07:18.719Z,11.50
2023-03-24T19:09:48.995Z,11.43
2023-03-24T19:12:17.792Z,11.95
2023-03-24T19:14:47.666Z,11.35
2023-03-24T19:17:16.998Z,10.80
2023-03-24T19:19:45.635Z,10.85
2023-03-24T19:24:45.965Z,9.90
2023-03-24T19:27:16.531Z,10.08
2023-03-24T19:29:47.290Z,10.30
2023-03-24T19:32:16.229Z,10.05
2023-03-24T19:34:46.700Z,9.15
2023-03-24T19:37:18.590Z,10.15
2023-03-24T19:39:49.757Z,10.75
2023-03-24T19:42:18.769Z,10.35
2023-03-24T19:44:47.783Z,11.63
2023-03-24T19:47:16.512Z,11.12
2023-03-24T19:49:46.382Z,10.48
2023-03-24T19:52:16.846Z,11.22
2023-03-24T19:54:46.754Z,11.20
2023-03-24T19:57:16.723Z,11.12
2023-03-24T19:59:46.271Z,11.43
2023-03-24T20:02:16.809Z,10.78
2023-03-24T20:04:45.463Z,11.85
2023-03-24T20:07:15.169Z,12.25
2023-03-24T20:09:46.308Z,12.68
2023-03-24T20:12:15.094Z,12.82
2023-03-24T20:14:44.229Z,13.60
2023-03-24T20:17:17.718Z,12.82
2023-03-24T20:19:47.247Z,12.55
2023-03-24T20:22:16.434Z,12.82
2023-03-24T20:24:47.873Z,13.50
2023-03-24T20:27:18.830Z,13.40
2023-03-24T20:29:47.911Z,13.65
2023-03-24T20:32:17.897Z,14.20
2023-03-24T20:34:46.715Z,13.40
2023-03-24T20:37:17.544Z,15.30
2023-03-24T20:39:47.868Z,14.83
2023-03-24T20:42:17.881Z,14.03
2023-03-24T20:44:46.477Z,15.00
2023-03-24T20:47:16.503Z,14.55
2023-03-24T20:49:45.700Z,15.68
2023-03-24T20:52:14.823Z,15.68
2023-03-24T20:54:45.870Z,16.10
2023-03-24T20:57:17.105Z,15.85
2023-03-24T20:59:48.641Z,16.40
2023-03-24T21:02:18.677Z,15.43
2023-03-24T21:04:49.160Z,15.53
2023-03-24T21:07:18.155Z,17.40
2023-03-24T21:09:47.028Z,17.60
2023-03-24T21:12:16.281Z,17.87
2023-03-24T21:14:46.415Z,15.65
2023-03-24T21:17:15.738Z,16.42
2023-03-24T21:19:46.490Z,15.78
2023-03-24T21:22:15.565Z,13.05
2023-03-24T21:24:45.791Z,12.65
2023-03-24T21:27:14.502Z,12.18
2023-03-24T21:29:46.735Z,10.93
2023-03-24T21:32:17.833Z,10.25
2023-03-24T21:34:46.680Z,10.38
2023-03-24T21:37:18.956Z,11.85
2023-03-24T21:39:48.047Z,10.72
2023-03-24T21:42:18.979Z,10.80
2023-03-24T21:44:50.660Z,10.50
2023-03-24T21:47:22.365Z,11.33
2023-03-24T21:49:53.245Z,11.30
2023-03-24T21:52:22.386Z,11.20
2023-03-24T21:54:53.513Z,10.45
2023-03-24T21:57:22.274Z,10.68
2023-03-24T21:59:52.734Z,11.33
2023-03-24T22:02:24.614Z,12.25
2023-03-24T22:04:54.790Z,11.85
2023-03-24T22:07:23.400Z,11.45
2023-03-24T22:09:54.303Z,11.80
2023-03-24T22:12:22.943Z,11.15
2023-03-24T22:14:53.285Z,11.38
2023-03-24T22:17:23.535Z,11.60
2023-03-24T22:19:52.619Z,11.68
2023-03-24T22:22:22.499Z,11.38
2023-03-24T22:24:51.625Z,11.25
2023-03-24T22:27:20.870Z,11.03
2023-03-24T22:29:51.137Z,11.57
2023-03-24T22:32:20.113Z,11.48
2023-03-24T22:34:52.912Z,11.85
2023-03-24T22:37:23.050Z,10.60
2023-03-24T22:39:51.785Z,10.88
2023-03-24T22:42:23.924Z,10.48
2023-03-24T22:44:52.997Z,10.40
2023-03-24T22:47:23.849Z,9.20
2023-03-24T22:49:52.845Z,10.85
2023-03-24T22:52:21.618Z,10.13
2023-03-24T22:54:50.368Z,11.33
2023-03-24T22:57:19.617Z,10.72
2023-03-24T22:59:48.709Z,9.98
2023-03-24T23:02:19.657Z,10.28
2023-03-24T23:04:49.361Z,10.30
2023-03-24T23:07:18.974Z,9.85
2023-03-24T23:09:47.897Z,10.20
2023-03-24T23:12:16.565Z,10.32
2023-03-24T23:14:46.298Z,11.10
2023-03-24T23:17:15.624Z,10.88
2023-03-24T23:19:46.111Z,10.72
2023-03-24T23:22:14.423Z,11.25
2023-03-24T23:24:44.406Z,10.95
2023-03-24T23:27:13.772Z,11.15
2023-03-24T23:29:42.373Z,10.90
2023-03-24T23:32:13.156Z,11.93
2023-03-24T23:34:46.245Z,11.25
2023-03-24T23:37:16.872Z,11.73
2023-03-24T23:39:48.912Z,10.90
2023-03-24T23:42:18.172Z,11.15
2023-03-24T23:44:48.287Z,10.90
2023-03-24T23:47:18.465Z,11.30
2023-03-24T23:49:48.328Z,10.93
2023-03-24T23:52:17.982Z,11.22
2023-03-24T23:54:48.223Z,11.05
2023-03-24T23:57:18.112Z,11.33
2023-03-24T23:59:52.699Z,11.22
